sensor_id;sensor_type;location;lat;lon;timestamp;pressure;altitude;pressure_sealevel;temperature;humidity
59939;BME280;45801;51.810;19.444;2022-08-01T00:01:45;98852.73;;;15.26;79.20
59939;BME280;45801;51.810;19.444;2022-08-01T00:04:10;98849.29;;;15.21;79.04
59939;BME280;45801;51.810;19.444;2022-08-01T00:06:36;98847.46;;;15.17;79.12
59939;BME280;45801;51.810;19.444;2022-08-01T00:09:02;98847.77;;;15.15;79.26
59939;BME280;45801;51.810;19.444;2022-08-01T00:11:27;98848.98;;;15.13;79.20
59939;BME280;45801;51.810;19.444;2022-08-01T00:13:53;98850.55;;;15.13;79.31
59939;BME280;45801;51.810;19.444;2022-08-01T00:16:19;98852.83;;;15.12;79.55
59939;BME280;45801;51.810;19.444;2022-08-01T00:18:49;98848.92;;;15.10;79.54
59939;BME280;45801;51.810;19.444;2022-08-01T00:21:16;98848.77;;;15.11;79.52
59939;BME280;45801;51.810;19.444;2022-08-01T00:23:41;98845.41;;;15.11;79.56
59939;BME280;45801;51.810;19.444;2022-08-01T00:26:07;98844.33;;;15.10;79.39
59939;BME280;45801;51.810;19.444;2022-08-01T00:28:33;98842.70;;;15.08;79.08
59939;BME280;45801;51.810;19.444;2022-08-01T00:30:59;98846.16;;;15.04;79.05
59939;BME280;45801;51.810;19.444;2022-08-01T00:33:25;98846.29;;;15.01;79.18
59939;BME280;45801;51.810;19.444;2022-08-01T00:35:51;98844.64;;;14.98;78.85
59939;BME280;45801;51.810;19.444;2022-08-01T00:38:17;98847.23;;;14.96;78.98
59939;BME280;45801;51.810;19.444;2022-08-01T00:40:43;98847.21;;;14.95;78.98
59939;BME280;45801;51.810;19.444;2022-08-01T00:43:09;98848.42;;;14.94;79.34
59939;BME280;45801;51.810;19.444;2022-08-01T00:45:34;98850.37;;;14.93;79.40
59939;BME280;45801;51.810;19.444;2022-08-01T00:48:00;98849.33;;;14.94;79.60
59939;BME280;45801;51.810;19.444;2022-08-01T00:50:27;98849.15;;;14.94;79.48
59939;BME280;45801;51.810;19.444;2022-08-01T00:52:54;98849.15;;;14.94;79.34
59939;BME280;45801;51.810;19.444;2022-08-01T00:55:21;98851.64;;;14.95;79.25
59939;BME280;45801;51.810;19.444;2022-08-01T00:57:48;98850.37;;;14.94;79.19
59939;BME280;45801;51.810;19.444;2022-08-01T01:00:15;98847.88;;;14.92;78.69
59939;BME280;45801;51.810;19.444;2022-08-01T01:02:41;98849.61;;;14.91;78.47
59939;BME280;45801;51.810;19.444;2022-08-01T01:05:07;98850.80;;;14.89;78.47
59939;BME280;45801;51.810;19.444;2022-08-01T01:07:46;98849.36;;;14.87;78.64
59939;BME280;45801;51.810;19.444;2022-08-01T01:13:01;98851.41;;;14.84;79.20
59939;BME280;45801;51.810;19.444;2022-08-01T01:15:34;98849.66;;;14.85;78.99
59939;BME280;45801;51.810;19.444;2022-08-01T01:18:23;98848.59;;;14.84;78.80
59939;BME280;45801;51.810;19.444;2022-08-01T01:21:00;98845.10;;;14.86;78.88
59939;BME280;45801;51.810;19.444;2022-08-01T01:23:54;98843.70;;;14.95;78.36
59939;BME280;45801;51.810;19.444;2022-08-01T01:26:57;98844.88;;;14.93;77.90
59939;BME280;45801;51.810;19.444;2022-08-01T01:29:35;98845.27;;;14.86;78.01
59939;BME280;45801;51.810;19.444;2022-08-01T01:32:07;98841.11;;;14.80;77.51
59939;BME280;45801;51.810;19.444;2022-08-01T01:34:50;98845.59;;;14.75;77.53
59939;BME280;45801;51.810;19.444;2022-08-01T01:37:21;98845.68;;;14.71;77.69
59939;BME280;45801;51.810;19.444;2022-08-01T01:39:50;98844.94;;;14.70;77.66
59939;BME280;45801;51.810;19.444;2022-08-01T01:42:17;98843.14;;;14.67;78.09
59939;BME280;45801;51.810;19.444;2022-08-01T01:44:45;98841.52;;;14.65;77.69
59939;BME280;45801;51.810;19.444;2022-08-01T01:47:16;98842.20;;;14.64;77.79
59939;BME280;45801;51.810;19.444;2022-08-01T01:49:44;98845.14;;;14.62;77.43
59939;BME280;45801;51.810;19.444;2022-08-01T01:52:17;98844.38;;;14.60;77.19
59939;BME280;45801;51.810;19.444;2022-08-01T01:54:47;98843.25;;;14.57;77.16
59939;BME280;45801;51.810;19.444;2022-08-01T01:57:15;98844.70;;;14.51;76.93
59939;BME280;45801;51.810;19.444;2022-08-01T01:59:44;98845.33;;;14.47;76.98
59939;BME280;45801;51.810;19.444;2022-08-01T02:02:13;98845.96;;;14.43;76.89
59939;BME280;45801;51.810;19.444;2022-08-01T02:04:43;98845.73;;;14.41;76.97
59939;BME280;45801;51.810;19.444;2022-08-01T02:07:12;98844.79;;;14.38;77.27
59939;BME280;45801;51.810;19.444;2022-08-01T02:09:42;98843.70;;;14.38;77.11
59939;BME280;45801;51.810;19.444;2022-08-01T02:12:10;98841.40;;;14.36;77.23
59939;BME280;45801;51.810;19.444;2022-08-01T02:14:38;98839.98;;;14.36;77.19
59939;BME280;45801;51.810;19.444;2022-08-01T02:17:11;98837.30;;;14.35;76.88
59939;BME280;45801;51.810;19.444;2022-08-01T02:19:38;98832.86;;;14.33;76.70
59939;BME280;45801;51.810;19.444;2022-08-01T02:22:11;98834.92;;;14.31;76.48
59939;BME280;45801;51.810;19.444;2022-08-01T02:25:02;98835.93;;;14.28;76.55
59939;BME280;45801;51.810;19.444;2022-08-01T02:27:45;98835.14;;;14.24;76.27
59939;BME280;45801;51.810;19.444;2022-08-01T02:30:13;98835.77;;;14.21;76.22
59939;BME280;45801;51.810;19.444;2022-08-01T02:32:49;98836.55;;;14.17;76.04
59939;BME280;45801;51.810;19.444;2022-08-01T02:35:24;98836.98;;;14.12;76.34
59939;BME280;45801;51.810;19.444;2022-08-01T02:37:53;98838.52;;;14.10;76.42
59939;BME280;45801;51.810;19.444;2022-08-01T02:40:19;98841.14;;;14.09;76.69
59939;BME280;45801;51.810;19.444;2022-08-01T02:42:49;98839.34;;;14.07;76.75
59939;BME280;45801;51.810;19.444;2022-08-01T02:45:17;98842.10;;;14.05;76.48
59939;BME280;45801;51.810;19.444;2022-08-01T02:47:45;98843.98;;;14.03;76.62
59939;BME280;45801;51.810;19.444;2022-08-01T02:50:13;98845.69;;;14.00;76.51
59939;BME280;45801;51.810;19.444;2022-08-01T02:52:41;98843.53;;;13.98;76.34
59939;BME280;45801;51.810;19.444;2022-08-01T02:55:08;98843.86;;;13.97;76.25
59939;BME280;45801;51.810;19.444;2022-08-01T02:57:36;98839.20;;;13.94;75.74
59939;BME280;45801;51.810;19.444;2022-08-01T03:00:04;98841.26;;;13.92;75.78
59939;BME280;45801;51.810;19.444;2022-08-01T03:02:32;98834.86;;;13.89;75.74
59939;BME280;45801;51.810;19.444;2022-08-01T03:05:00;98834.47;;;13.87;76.29
59939;BME280;45801;51.810;19.444;2022-08-01T03:07:28;98837.23;;;13.85;76.42
59939;BME280;45801;51.810;19.444;2022-08-01T03:09:56;98841.45;;;13.85;76.66
59939;BME280;45801;51.810;19.444;2022-08-01T03:12:26;98842.33;;;13.84;76.95
59939;BME280;45801;51.810;19.444;2022-08-01T03:14:54;98837.61;;;13.86;76.83
59939;BME280;45801;51.810;19.444;2022-08-01T03:17:22;98840.98;;;13.87;76.89
59939;BME280;45801;51.810;19.444;2022-08-01T03:19:51;98844.15;;;13.87;76.85
59939;BME280;45801;51.810;19.444;2022-08-01T03:22:18;98841.55;;;13.89;76.83
59939;BME280;45801;51.810;19.444;2022-08-01T03:24:50;98841.06;;;13.91;77.03
59939;BME280;45801;51.810;19.444;2022-08-01T03:27:19;98837.92;;;13.92;77.16
59939;BME280;45801;51.810;19.444;2022-08-01T03:29:46;98834.27;;;13.93;77.20
59939;BME280;45801;51.810;19.444;2022-08-01T03:32:13;98832.55;;;13.95;77.42
59939;BME280;45801;51.810;19.444;2022-08-01T03:34:40;98833.14;;;13.99;77.57
59939;BME280;45801;51.810;19.444;2022-08-01T03:37:21;98834.98;;;14.02;77.81
59939;BME280;45801;51.810;19.444;2022-08-01T03:39:58;98838.44;;;14.06;78.00
59939;BME280;45801;51.810;19.444;2022-08-01T03:42:33;98839.77;;;14.12;78.26
59939;BME280;45801;51.810;19.444;2022-08-01T03:45:06;98839.53;;;14.16;78.40
59939;BME280;45801;51.810;19.444;2022-08-01T03:47:34;98845.25;;;14.20;78.51
59939;BME280;45801;51.810;19.444;2022-08-01T03:50:02;98848.95;;;14.20;78.60
59939;BME280;45801;51.810;19.444;2022-08-01T03:52:30;98846.70;;;14.21;78.43
59939;BME280;45801;51.810;19.444;2022-08-01T03:55:00;98839.17;;;14.24;78.06
59939;BME280;45801;51.810;19.444;2022-08-01T03:57:28;98843.75;;;14.23;78.21
59939;BME280;45801;51.810;19.444;2022-08-01T03:59:57;98846.55;;;14.22;78.21
59939;BME280;45801;51.810;19.444;2022-08-01T04:02:26;98851.11;;;14.22;78.33
59939;BME280;45801;51.810;19.444;2022-08-01T04:04:53;98847.08;;;14.22;78.32
59939;BME280;45801;51.810;19.444;2022-08-01T04:07:26;98847.98;;;14.23;78.32
59939;BME280;45801;51.810;19.444;2022-08-01T04:09:52;98850.13;;;14.24;78.54
59939;BME280;45801;51.810;19.444;2022-08-01T04:12:18;98856.82;;;14.24;78.39
59939;BME280;45801;51.810;19.444;2022-08-01T04:14:44;98863.70;;;14.26;78.60
59939;BME280;45801;51.810;19.444;2022-08-01T04:17:10;98865.52;;;14.28;79.08
59939;BME280;45801;51.810;19.444;2022-08-01T04:19:36;98866.80;;;14.30;79.12
59939;BME280;45801;51.810;19.444;2022-08-01T04:22:02;98864.21;;;14.32;78.77
59939;BME280;45801;51.810;19.444;2022-08-01T04:24:29;98870.44;;;14.36;78.84
59939;BME280;45801;51.810;19.444;2022-08-01T04:26:58;98868.88;;;14.36;79.01
59939;BME280;45801;51.810;19.444;2022-08-01T04:29:26;98865.75;;;14.39;79.18
59939;BME280;45801;51.810;19.444;2022-08-01T04:31:55;98864.02;;;14.40;78.95
59939;BME280;45801;51.810;19.444;2022-08-01T04:34:24;98863.17;;;14.41;79.16
59939;BME280;45801;51.810;19.444;2022-08-01T04:36:52;98860.98;;;14.46;79.26
59939;BME280;45801;51.810;19.444;2022-08-01T04:39:20;98855.77;;;14.49;79.43
59939;BME280;45801;51.810;19.444;2022-08-01T04:41:48;98856.22;;;14.54;79.58
59939;BME280;45801;51.810;19.444;2022-08-01T04:44:14;98852.08;;;14.58;79.66
59939;BME280;45801;51.810;19.444;2022-08-01T04:46:40;98853.09;;;14.63;79.76
59939;BME280;45801;51.810;19.444;2022-08-01T04:49:07;98857.95;;;14.67;80.03
59939;BME280;45801;51.810;19.444;2022-08-01T04:51:34;98856.63;;;14.72;79.90
59939;BME280;45801;51.810;19.444;2022-08-01T04:54:00;98860.95;;;14.76;79.80
59939;BME280;45801;51.810;19.444;2022-08-01T04:56:26;98858.04;;;14.80;79.68
59939;BME280;45801;51.810;19.444;2022-08-01T04:58:52;98855.98;;;14.84;79.50
59939;BME280;45801;51.810;19.444;2022-08-01T05:01:38;98860.45;;;14.87;79.84
59939;BME280;45801;51.810;19.444;2022-08-01T05:04:03;98859.59;;;14.89;79.60
59939;BME280;45801;51.810;19.444;2022-08-01T05:06:29;98862.13;;;14.91;79.72
59939;BME280;45801;51.810;19.444;2022-08-01T05:08:55;98860.44;;;14.94;79.78
59939;BME280;45801;51.810;19.444;2022-08-01T05:11:21;98858.23;;;14.98;80.19
59939;BME280;45801;51.810;19.444;2022-08-01T05:13:48;98859.54;;;15.03;80.29
59939;BME280;45801;51.810;19.444;2022-08-01T05:16:14;98860.86;;;15.08;80.39
59939;BME280;45801;51.810;19.444;2022-08-01T05:18:39;98857.95;;;15.12;80.39
59939;BME280;45801;51.810;19.444;2022-08-01T05:21:05;98855.41;;;15.17;80.49
59939;BME280;45801;51.810;19.444;2022-08-01T05:23:30;98855.68;;;15.23;80.46
59939;BME280;45801;51.810;19.444;2022-08-01T05:25:56;98854.56;;;15.30;80.65
59939;BME280;45801;51.810;19.444;2022-08-01T05:28:22;98856.09;;;15.35;80.74
59939;BME280;45801;51.810;19.444;2022-08-01T05:30:47;98859.02;;;15.42;80.75
59939;BME280;45801;51.810;19.444;2022-08-01T05:33:13;98856.65;;;15.47;80.71
59939;BME280;45801;51.810;19.444;2022-08-01T05:35:39;98853.02;;;15.51;80.77
59939;BME280;45801;51.810;19.444;2022-08-01T05:38:04;98854.37;;;15.58;80.90
59939;BME280;45801;51.810;19.444;2022-08-01T05:40:30;98853.42;;;15.65;80.64
59939;BME280;45801;51.810;19.444;2022-08-01T05:42:56;98849.65;;;15.71;80.95
59939;BME280;45801;51.810;19.444;2022-08-01T05:45:21;98848.73;;;15.78;81.04
59939;BME280;45801;51.810;19.444;2022-08-01T05:47:47;98849.36;;;15.84;81.21
59939;BME280;45801;51.810;19.444;2022-08-01T05:50:13;98851.05;;;15.91;81.22
59939;BME280;45801;51.810;19.444;2022-08-01T05:52:38;98851.67;;;15.97;81.58
59939;BME280;45801;51.810;19.444;2022-08-01T05:55:05;98851.44;;;16.04;81.56
59939;BME280;45801;51.810;19.444;2022-08-01T05:57:30;98856.30;;;16.11;81.30
59939;BME280;45801;51.810;19.444;2022-08-01T05:59:56;98856.55;;;16.16;80.93
59939;BME280;45801;51.810;19.444;2022-08-01T06:02:22;98861.77;;;16.21;80.65
59939;BME280;45801;51.810;19.444;2022-08-01T06:04:47;98861.13;;;16.26;80.34
59939;BME280;45801;51.810;19.444;2022-08-01T06:07:13;98861.90;;;16.31;80.30
59939;BME280;45801;51.810;19.444;2022-08-01T06:09:39;98862.15;;;16.36;80.12
59939;BME280;45801;51.810;19.444;2022-08-01T06:12:04;98865.77;;;16.41;80.40
59939;BME280;45801;51.810;19.444;2022-08-01T06:14:30;98863.90;;;16.47;80.82
59939;BME280;45801;51.810;19.444;2022-08-01T06:16:56;98857.97;;;16.54;80.75
59939;BME280;45801;51.810;19.444;2022-08-01T06:19:22;98859.63;;;16.59;81.05
59939;BME280;45801;51.810;19.444;2022-08-01T06:21:48;98861.67;;;16.66;81.25
59939;BME280;45801;51.810;19.444;2022-08-01T06:24:13;98862.30;;;16.73;81.31
59939;BME280;45801;51.810;19.444;2022-08-01T06:26:39;98865.39;;;16.80;81.22
59939;BME280;45801;51.810;19.444;2022-08-01T06:29:05;98867.80;;;16.87;80.75
59939;BME280;45801;51.810;19.444;2022-08-01T06:31:30;98869.30;;;16.93;81.06
59939;BME280;45801;51.810;19.444;2022-08-01T06:33:56;98865.13;;;17.01;80.83
59939;BME280;45801;51.810;19.444;2022-08-01T06:36:22;98863.80;;;17.07;80.07
59939;BME280;45801;51.810;19.444;2022-08-01T06:38:48;98866.70;;;17.14;80.15
59939;BME280;45801;51.810;19.444;2022-08-01T06:41:14;98873.84;;;17.20;79.80
59939;BME280;45801;51.810;19.444;2022-08-01T06:43:39;98873.55;;;17.25;79.89
59939;BME280;45801;51.810;19.444;2022-08-01T06:46:05;98878.20;;;17.30;79.52
59939;BME280;45801;51.810;19.444;2022-08-01T06:48:31;98876.83;;;17.35;79.68
59939;BME280;45801;51.810;19.444;2022-08-01T06:50:56;98877.25;;;17.41;80.12
59939;BME280;45801;51.810;19.444;2022-08-01T06:53:35;98874.48;;;17.47;79.76
59939;BME280;45801;51.810;19.444;2022-08-01T06:56:02;98873.10;;;17.51;79.94
59939;BME280;45801;51.810;19.444;2022-08-01T06:58:28;98875.09;;;17.56;79.29
59939;BME280;45801;51.810;19.444;2022-08-01T07:00:54;98875.66;;;17.60;79.04
59939;BME280;45801;51.810;19.444;2022-08-01T07:03:20;98871.28;;;17.64;79.04
59939;BME280;45801;51.810;19.444;2022-08-01T07:05:45;98868.83;;;17.67;78.67
59939;BME280;45801;51.810;19.444;2022-08-01T07:08:11;98870.82;;;17.73;78.56
59939;BME280;45801;51.810;19.444;2022-08-01T07:10:37;98871.57;;;17.79;78.98
59939;BME280;45801;51.810;19.444;2022-08-01T07:13:02;98870.23;;;17.85;78.95
59939;BME280;45801;51.810;19.444;2022-08-01T07:15:28;98866.94;;;17.93;78.84
59939;BME280;45801;51.810;19.444;2022-08-01T07:17:54;98862.02;;;17.98;78.71
59939;BME280;45801;51.810;19.444;2022-08-01T07:20:19;98861.19;;;18.04;78.78
59939;BME280;45801;51.810;19.444;2022-08-01T07:22:45;98861.77;;;18.11;78.64
59939;BME280;45801;51.810;19.444;2022-08-01T07:25:11;98860.56;;;18.17;78.51
59939;BME280;45801;51.810;19.444;2022-08-01T07:27:37;98861.51;;;18.25;78.48
59939;BME280;45801;51.810;19.444;2022-08-01T07:30:04;98862.77;;;18.31;77.80
59939;BME280;45801;51.810;19.444;2022-08-01T07:32:30;98861.41;;;18.37;77.77
59939;BME280;45801;51.810;19.444;2022-08-01T07:34:56;98860.37;;;18.43;77.68
59939;BME280;45801;51.810;19.444;2022-08-01T07:37:22;98858.82;;;18.49;77.32
59939;BME280;45801;51.810;19.444;2022-08-01T07:39:49;98859.19;;;18.54;77.52
59939;BME280;45801;51.810;19.444;2022-08-01T07:42:15;98859.77;;;18.61;77.78
59939;BME280;45801;51.810;19.444;2022-08-01T07:44:42;98860.12;;;18.64;77.78
59939;BME280;45801;51.810;19.444;2022-08-01T07:47:07;98858.89;;;18.69;77.95
59939;BME280;45801;51.810;19.444;2022-08-01T07:49:34;98862.30;;;18.71;77.70
59939;BME280;45801;51.810;19.444;2022-08-01T07:52:00;98867.27;;;18.76;77.48
59939;BME280;45801;51.810;19.444;2022-08-01T07:54:33;98864.82;;;18.81;76.73
59939;BME280;45801;51.810;19.444;2022-08-01T07:56:59;98865.55;;;18.84;76.03
59939;BME280;45801;51.810;19.444;2022-08-01T07:59:24;98865.41;;;18.88;76.35
59939;BME280;45801;51.810;19.444;2022-08-01T08:01:50;98862.77;;;18.93;76.34
59939;BME280;45801;51.810;19.444;2022-08-01T08:04:17;98860.31;;;18.99;76.12
59939;BME280;45801;51.810;19.444;2022-08-01T08:06:43;98858.90;;;19.03;75.99
59939;BME280;45801;51.810;19.444;2022-08-01T08:09:10;98860.52;;;19.07;75.88
59939;BME280;45801;51.810;19.444;2022-08-01T08:11:36;98862.66;;;19.15;76.07
59939;BME280;45801;51.810;19.444;2022-08-01T08:14:02;98859.48;;;19.21;75.04
59939;BME280;45801;51.810;19.444;2022-08-01T08:16:27;98862.34;;;19.25;74.22
59939;BME280;45801;51.810;19.444;2022-08-01T08:18:53;98857.38;;;19.30;73.41
59939;BME280;45801;51.810;19.444;2022-08-01T08:21:19;98857.21;;;19.34;74.21
59939;BME280;45801;51.810;19.444;2022-08-01T08:23:45;98859.70;;;19.40;73.03
59939;BME280;45801;51.810;19.444;2022-08-01T08:26:29;98857.94;;;19.47;74.06
59939;BME280;45801;51.810;19.444;2022-08-01T08:28:55;98857.59;;;19.53;73.52
59939;BME280;45801;51.810;19.444;2022-08-01T08:31:22;98857.78;;;19.61;73.57
59939;BME280;45801;51.810;19.444;2022-08-01T08:33:48;98857.61;;;19.69;73.90
59939;BME280;45801;51.810;19.444;2022-08-01T08:36:14;98861.00;;;19.76;73.93
59939;BME280;45801;51.810;19.444;2022-08-01T08:38:40;98867.42;;;19.85;73.20
59939;BME280;45801;51.810;19.444;2022-08-01T08:41:06;98865.64;;;19.88;72.73
59939;BME280;45801;51.810;19.444;2022-08-01T08:43:32;98869.19;;;19.94;72.95
59939;BME280;45801;51.810;19.444;2022-08-01T08:45:58;98868.12;;;20.00;71.73
59939;BME280;45801;51.810;19.444;2022-08-01T08:48:24;98870.27;;;20.07;70.94
59939;BME280;45801;51.810;19.444;2022-08-01T08:50:50;98867.23;;;20.11;70.59
59939;BME280;45801;51.810;19.444;2022-08-01T08:53:18;98872.56;;;20.17;69.56
59939;BME280;45801;51.810;19.444;2022-08-01T08:55:44;98867.04;;;20.21;69.78
59939;BME280;45801;51.810;19.444;2022-08-01T08:58:12;98867.04;;;20.24;67.57
59939;BME280;45801;51.810;19.444;2022-08-01T09:00:41;98867.21;;;20.26;64.39
59939;BME280;45801;51.810;19.444;2022-08-01T09:03:07;98865.06;;;20.31;66.69
59939;BME280;45801;51.810;19.444;2022-08-01T09:05:33;98868.80;;;20.36;65.39
59939;BME280;45801;51.810;19.444;2022-08-01T09:07:59;98864.52;;;20.37;64.86
59939;BME280;45801;51.810;19.444;2022-08-01T09:10:25;98872.34;;;20.40;67.07
59939;BME280;45801;51.810;19.444;2022-08-01T09:13:12;98872.86;;;20.43;67.32
59939;BME280;45801;51.810;19.444;2022-08-01T09:15:47;98871.62;;;20.46;67.27
59939;BME280;45801;51.810;19.444;2022-08-01T09:18:39;98874.80;;;20.52;67.84
59939;BME280;45801;51.810;19.444;2022-08-01T09:23:35;98876.02;;;20.64;69.55
59939;BME280;45801;51.810;19.444;2022-08-01T09:26:06;98879.41;;;20.74;69.40
59939;BME280;45801;51.810;19.444;2022-08-01T09:28:32;98877.77;;;20.82;69.07
59939;BME280;45801;51.810;19.444;2022-08-01T09:30:59;98880.59;;;20.90;68.70
59939;BME280;45801;51.810;19.444;2022-08-01T09:34:06;98879.30;;;20.98;67.03
59939;BME280;45801;51.810;19.444;2022-08-01T09:36:53;98876.96;;;21.04;66.70
59939;BME280;45801;51.810;19.444;2022-08-01T09:39:27;98875.52;;;21.09;66.09
59939;BME280;45801;51.810;19.444;2022-08-01T09:41:55;98877.82;;;21.12;66.76
59939;BME280;45801;51.810;19.444;2022-08-01T09:44:37;98873.38;;;21.11;64.98
59939;BME280;45801;51.810;19.444;2022-08-01T09:47:04;98874.81;;;21.10;64.68
59939;BME280;45801;51.810;19.444;2022-08-01T09:49:32;98879.26;;;21.11;65.61
59939;BME280;45801;51.810;19.444;2022-08-01T09:52:12;98881.00;;;21.15;64.50
59939;BME280;45801;51.810;19.444;2022-08-01T09:54:38;98880.98;;;21.20;65.11
59939;BME280;45801;51.810;19.444;2022-08-01T09:57:16;98885.05;;;21.26;65.42
59939;BME280;45801;51.810;19.444;2022-08-01T09:59:45;98888.42;;;21.29;62.81
59939;BME280;45801;51.810;19.444;2022-08-01T10:02:13;98888.95;;;21.28;62.06
59939;BME280;45801;51.810;19.444;2022-08-01T10:04:48;98887.53;;;21.29;60.72
59939;BME280;45801;51.810;19.444;2022-08-01T10:07:15;98888.61;;;21.27;61.67
59939;BME280;45801;51.810;19.444;2022-08-01T10:09:42;98888.42;;;21.27;59.02
59939;BME280;45801;51.810;19.444;2022-08-01T10:12:10;98889.11;;;21.33;62.16
59939;BME280;45801;51.810;19.444;2022-08-01T10:14:37;98884.78;;;21.41;62.18
59939;BME280;45801;51.810;19.444;2022-08-01T10:17:06;98883.16;;;21.45;62.74
59939;BME280;45801;51.810;19.444;2022-08-01T10:19:34;98881.55;;;21.50;61.90
59939;BME280;45801;51.810;19.444;2022-08-01T10:22:01;98879.21;;;21.54;61.48
59939;BME280;45801;51.810;19.444;2022-08-01T10:24:29;98878.63;;;21.61;60.99
59939;BME280;45801;51.810;19.444;2022-08-01T10:26:58;98877.36;;;21.65;61.79
59939;BME280;45801;51.810;19.444;2022-08-01T10:29:32;98874.64;;;21.71;60.28
59939;BME280;45801;51.810;19.444;2022-08-01T10:32:00;98875.29;;;21.79;60.54
59939;BME280;45801;51.810;19.444;2022-08-01T10:34:27;98871.65;;;21.88;60.55
59939;BME280;45801;51.810;19.444;2022-08-01T10:36:53;98868.89;;;21.98;60.17
59939;BME280;45801;51.810;19.444;2022-08-01T10:39:20;98867.39;;;22.08;59.95
59939;BME280;45801;51.810;19.444;2022-08-01T10:41:46;98867.14;;;22.16;60.56
59939;BME280;45801;51.810;19.444;2022-08-01T10:44:12;98861.20;;;22.21;60.11
59939;BME280;45801;51.810;19.444;2022-08-01T10:46:39;98861.71;;;22.23;59.63
59939;BME280;45801;51.810;19.444;2022-08-01T10:49:13;98858.67;;;22.24;59.78
59939;BME280;45801;51.810;19.444;2022-08-01T10:51:41;98862.58;;;22.26;60.01
59939;BME280;45801;51.810;19.444;2022-08-01T10:54:09;98860.40;;;22.31;57.69
59939;BME280;45801;51.810;19.444;2022-08-01T10:56:43;98853.39;;;22.38;59.18
59939;BME280;45801;51.810;19.444;2022-08-01T10:59:20;98854.17;;;22.48;59.97
59939;BME280;45801;51.810;19.444;2022-08-01T11:02:06;98853.05;;;22.52;60.21
59939;BME280;45801;51.810;19.444;2022-08-01T11:04:58;98854.61;;;22.56;59.58
59939;BME280;45801;51.810;19.444;2022-08-01T11:07:51;98849.06;;;22.58;59.57
59939;BME280;45801;51.810;19.444;2022-08-01T11:13:05;98851.64;;;22.52;59.14
59939;BME280;45801;51.810;19.444;2022-08-01T11:15:34;98852.40;;;22.46;58.57
59939;BME280;45801;51.810;19.444;2022-08-01T11:18:02;98855.66;;;22.42;59.03
59939;BME280;45801;51.810;19.444;2022-08-01T11:20:32;98851.77;;;22.39;60.25
59939;BME280;45801;51.810;19.444;2022-08-01T11:30:40;98856.18;;;22.44;61.74
59939;BME280;45801;51.810;19.444;2022-08-01T11:33:06;98851.88;;;22.46;61.66
59939;BME280;45801;51.810;19.444;2022-08-01T11:35:34;98855.79;;;22.47;61.41
59939;BME280;45801;51.810;19.444;2022-08-01T11:38:22;98857.94;;;22.46;61.12
59939;BME280;45801;51.810;19.444;2022-08-01T11:41:10;98857.41;;;22.45;61.47
59939;BME280;45801;51.810;19.444;2022-08-01T11:49:32;98852.58;;;22.47;61.15
59939;BME280;45801;51.810;19.444;2022-08-01T11:54:37;98852.55;;;22.49;61.11
59939;BME280;45801;51.810;19.444;2022-08-01T11:57:12;98852.48;;;22.57;60.53
59939;BME280;45801;51.810;19.444;2022-08-01T11:59:43;98851.11;;;22.66;60.60
59939;BME280;45801;51.810;19.444;2022-08-01T12:05:05;98852.80;;;22.74;61.19
59939;BME280;45801;51.810;19.444;2022-08-01T12:07:32;98853.76;;;22.83;61.27
59939;BME280;45801;51.810;19.444;2022-08-01T12:12:31;98858.02;;;23.00;60.92
59939;BME280;45801;51.810;19.444;2022-08-01T12:14:59;98859.70;;;23.07;59.32
59939;BME280;45801;51.810;19.444;2022-08-01T12:17:36;98857.87;;;23.14;59.68
59939;BME280;45801;51.810;19.444;2022-08-01T12:20:04;98855.62;;;23.21;59.59
59939;BME280;45801;51.810;19.444;2022-08-01T12:22:30;98852.89;;;23.26;59.66
59939;BME280;45801;51.810;19.444;2022-08-01T12:25:08;98850.59;;;23.35;60.11
59939;BME280;45801;51.810;19.444;2022-08-01T12:27:35;98856.16;;;23.46;59.50
59939;BME280;45801;51.810;19.444;2022-08-01T12:30:06;98850.84;;;23.55;58.24
59939;BME280;45801;51.810;19.444;2022-08-01T12:32:34;98851.23;;;23.64;58.23
59939;BME280;45801;51.810;19.444;2022-08-01T12:35:05;98851.08;;;23.74;57.67
59939;BME280;45801;51.810;19.444;2022-08-01T12:37:38;98843.45;;;23.82;59.32
59939;BME280;45801;51.810;19.444;2022-08-01T12:42:39;98839.92;;;23.91;57.24
59939;BME280;45801;51.810;19.444;2022-08-01T12:45:09;98845.70;;;23.88;57.48
59939;BME280;45801;51.810;19.444;2022-08-01T12:47:37;98845.20;;;23.86;58.26
59939;BME280;45801;51.810;19.444;2022-08-01T12:50:11;98846.46;;;23.84;58.82
59939;BME280;45801;51.810;19.444;2022-08-01T12:52:38;98846.16;;;23.80;57.57
59939;BME280;45801;51.810;19.444;2022-08-01T12:55:18;98849.07;;;23.77;57.84
59939;BME280;45801;51.810;19.444;2022-08-01T12:57:46;98848.44;;;23.72;58.71
59939;BME280;45801;51.810;19.444;2022-08-01T13:02:46;98848.16;;;23.67;58.35
59939;BME280;45801;51.810;19.444;2022-08-01T13:05:13;98848.35;;;23.66;58.36
59939;BME280;45801;51.810;19.444;2022-08-01T13:07:48;98852.11;;;23.65;58.02
59939;BME280;45801;51.810;19.444;2022-08-01T13:10:28;98853.79;;;23.61;55.62
59939;BME280;45801;51.810;19.444;2022-08-01T13:12:57;98853.67;;;23.57;55.31
59939;BME280;45801;51.810;19.444;2022-08-01T13:15:31;98856.58;;;23.54;55.89
59939;BME280;45801;51.810;19.444;2022-08-01T13:18:00;98853.25;;;23.50;56.08
59939;BME280;45801;51.810;19.444;2022-08-01T13:20:30;98854.90;;;23.47;56.09
59939;BME280;45801;51.810;19.444;2022-08-01T13:23:10;98858.53;;;23.42;55.45
59939;BME280;45801;51.810;19.444;2022-08-01T13:25:46;98855.39;;;23.38;55.83
59939;BME280;45801;51.810;19.444;2022-08-01T13:28:24;98851.52;;;23.33;56.39
59939;BME280;45801;51.810;19.444;2022-08-01T13:31:00;98851.41;;;23.29;56.26
59939;BME280;45801;51.810;19.444;2022-08-01T13:33:28;98850.01;;;23.26;57.55
59939;BME280;45801;51.810;19.444;2022-08-01T13:35:55;98846.13;;;23.23;58.19